Main page
METAR-TAF:

METAR-TAF

Airports :

Caen – Carpiquet Airport

Caen, France

latitude: 49-11N, longitude: 000-27W, elevation: 78 m

Current weather observation

The report was made 13 minutes ago, at 07:30 UTC
Wind 8 kt from the Northwest
Temperature 19°C
Humidity 83%
Pressure 1021 hPa
Visibility 10 km or more
Few clouds at a height of 900 ft

METAR: LFRK 150730Z AUTO 31008KT 9999 FEW009 19/16 Q1021

Time: 09:43 (07:43 UTC)

Forecast

The report was made 17 hours and 43 minutes ago, at 14:00 UTC
Forecast valid from 14 at 15 UTC to 14 at 24 UTC
Wind 10 kt from the North
Visibility 10 km or more
no clouds below 1500 m and no cumulonimbus
Becoming
from 14 at 18 UTC to 14 at 21 UTC
Wind 5 kt from variable directions

TAF: LFRK 141400Z 1415/1424 35010KT CAVOK BECMG 1418/1421 VRB05KT

Weather observations and forecasts of more than 4000 airports (METAR and TAF reports).

The available stations are represented by yellow and red dots on the map.

Hover mouse over dot to see the name of the station.

Then click to see weather observations and forecasts.

To change the map : click on the green buttons with a black cross to zoom in, on the green button with a dash to zoom out, or on the green arrows for adjacent maps.


METAR-TAF: